Time;durP1;ratioP1;P1;durP2;ratioP2;P2;SDS_P1;SDS_P2;PMS_P1;PMS_P2;Temp;Humidity;BMP_temperature;BMP_pressure;BME280_temperature;BME280_humidity;BME280_pressure;Samples;Min_cycle;Max_cycle;Signal;HPM_P1;HPM_P2
2021/07/12 00:02:42;;;;;;;2.03;1.10;;;19.90;66.50;;;;;;5190025;27;27391;-59
2021/07/12 00:05:31;;;;;;;4.07;1.15;;;19.90;67.30;;;;;;5189710;27;27413;-59
2021/07/12 00:08:18;;;;;;;3.40;1.27;;;19.80;66.40;;;;;;5188527;27;27494;-59
2021/07/12 00:11:06;;;;;;;3.45;1.13;;;19.80;66.50;;;;;;5185715;27;27424;-60
2021/07/12 00:13:53;;;;;;;2.92;1.02;;;19.80;66.60;;;;;;5189093;27;27436;-59
2021/07/12 00:16:39;;;;;;;2.22;1.27;;;19.80;66.60;;;;;;5189061;27;27395;-59
2021/07/12 00:19:26;;;;;;;4.55;1.05;;;19.80;66.60;;;;;;5170902;27;27517;-59
2021/07/12 00:22:13;;;;;;;4.22;1.10;;;19.70;66.60;;;;;;5189804;27;27322;-59
2021/07/12 00:25:00;;;;;;;4.60;1.00;;;19.70;66.60;;;;;;5174006;27;27878;-58
2021/07/12 00:27:47;;;;;;;4.10;1.38;;;19.70;66.50;;;;;;5187727;27;27331;-59
2021/07/12 00:30:35;;;;;;;1.85;0.95;;;19.70;66.40;;;;;;5185333;27;27291;-58
2021/07/12 00:33:22;;;;;;;1.17;1.00;;;19.60;66.60;;;;;;5186138;27;27414;-60
2021/07/12 00:36:09;;;;;;;5.50;1.27;;;19.60;66.60;;;;;;5187969;27;27494;-59
2021/07/12 00:38:56;;;;;;;4.53;1.23;;;19.60;66.60;;;;;;5188349;27;27396;-58
2021/07/12 00:41:44;;;;;;;2.03;1.17;;;19.60;66.60;;;;;;5173941;27;27372;-59
2021/07/12 00:44:32;;;;;;;1.20;1.10;;;19.60;66.70;;;;;;5185104;27;27442;-60
2021/07/12 00:47:18;;;;;;;3.63;1.27;;;19.50;66.60;;;;;;5170866;27;27483;-59
2021/07/12 00:50:07;;;;;;;1.42;1.10;;;19.50;66.70;;;;;;5189130;27;27449;-59
2021/07/12 00:52:54;;;;;;;4.13;1.30;;;19.50;66.60;;;;;;5187739;27;27350;-59
2021/07/12 00:55:46;;;;;;;2.08;1.17;;;19.50;66.60;;;;;;5173880;27;27381;-61
2021/07/12 00:58:33;;;;;;;2.28;1.20;;;19.40;66.50;;;;;;5188961;27;27366;-58
2021/07/12 01:01:21;;;;;;;5.10;1.25;;;19.40;66.50;;;;;;5184942;27;27479;-59
2021/07/12 01:04:09;;;;;;;4.38;1.33;;;19.40;66.60;;;;;;5188516;27;27582;-59
2021/07/12 01:06:57;;;;;;;2.33;1.25;;;19.30;66.60;;;;;;5189101;27;27354;-59
2021/07/12 01:09:44;;;;;;;1.50;1.40;;;19.30;66.70;;;;;;5170362;27;28051;-60
2021/07/12 01:12:49;;;;;;;2.97;1.20;;;19.30;66.80;;;;;;5185312;27;27471;-58
2021/07/12 01:15:52;;;;;;;5.07;1.17;;;19.30;66.90;;;;;;5187858;27;27397;-59
2021/07/12 01:18:47;;;;;;;3.42;1.10;;;19.20;66.80;;;;;;5188177;27;27403;-59
2021/07/12 01:22:11;;;;;;;3.00;1.17;;;19.20;66.90;;;;;;5188640;27;27391;-63
2021/07/12 01:25:26;;;;;;;2.40;1.40;;;19.20;66.70;;;;;;5184169;27;27437;-59
2021/07/12 01:28:51;;;;;;;5.60;1.50;;;19.10;66.70;;;;;;5188538;27;27353;-59
2021/07/12 01:31:50;;;;;;;3.08;1.23;;;19.10;66.70;;;;;;5186012;27;27641;-59
2021/07/12 01:35:20;;;;;;;3.00;1.13;;;19.10;66.60;;;;;;5187585;27;27452;-58
2021/07/12 01:38:18;;;;;;;7.90;1.38;;;19.10;66.70;;;;;;5187977;27;27334;-60
2021/07/12 01:41:34;;;;;;;2.00;1.25;;;19.00;66.70;;;;;;5188322;27;27355;-59
2021/07/12 01:44:37;;;;;;;2.35;1.30;;;19.00;66.80;;;;;;5187400;27;27436;-59
2021/07/12 01:47:52;;;;;;;2.63;1.35;;;19.00;66.90;;;;;;5183891;27;27331;-58
2021/07/12 01:50:55;;;;;;;5.13;1.42;;;19.00;66.90;;;;;;5167570;27;27357;-59
2021/07/12 01:53:50;;;;;;;1.90;1.35;;;18.90;66.90;;;;;;5141749;27;27710;-60
2021/07/12 01:57:02;;;;;;;2.47;1.17;;;18.90;66.90;;;;;;5183807;27;27310;-58
2021/07/12 02:00:03;;;;;;;3.25;1.40;;;18.90;66.90;;;;;;5156132;27;27465;-57
2021/07/12 02:03:06;;;;;;;2.00;1.50;;;18.90;66.90;;;;;;5184555;27;27505;-58
2021/07/12 02:05:56;;;;;;;2.45;1.40;;;18.90;66.90;;;;;;5183635;27;27391;-58
2021/07/12 02:08:47;;;;;;;5.03;1.85;;;18.80;66.90;;;;;;5187036;27;27459;-58
2021/07/12 02:11:44;;;;;;;1.35;1.25;;;18.80;66.90;;;;;;5183580;27;27505;-59
2021/07/12 02:14:33;;;;;;;3.55;1.42;;;18.80;66.90;;;;;;5169154;27;27492;-59
2021/07/12 02:17:20;;;;;;;2.47;1.77;;;18.80;66.90;;;;;;5168909;27;27394;-60
2021/07/12 02:20:18;;;;;;;2.90;1.85;;;18.70;67.50;;;;;;5183501;27;27318;-58
2021/07/12 02:23:05;;;;;;;5.97;1.85;;;18.70;66.80;;;;;;5183302;27;27966;-58
2021/07/12 02:25:53;;;;;;;2.03;1.38;;;18.70;66.80;;;;;;5170694;27;27486;-59
2021/07/12 02:28:44;;;;;;;3.53;1.23;;;18.70;66.90;;;;;;5169370;27;27308;-58
2021/07/12 02:31:32;;;;;;;4.35;1.70;;;18.70;66.80;;;;;;5183482;27;27527;-56
2021/07/12 02:34:20;;;;;;;1.38;1.27;;;18.60;66.80;;;;;;5172406;27;27895;-58
2021/07/12 02:37:12;;;;;;;2.55;1.40;;;18.60;66.80;;;;;;5183864;27;27470;-57
2021/07/12 02:39:59;;;;;;;2.25;1.45;;;18.60;66.80;;;;;;5183193;27;27408;-58
2021/07/12 02:42:51;;;;;;;6.05;1.52;;;18.60;66.80;;;;;;5169027;27;27387;-58
2021/07/12 02:45:38;;;;;;;4.50;1.50;;;18.60;66.90;;;;;;5182877;27;27863;-58
2021/07/12 02:48:28;;;;;;;2.55;1.55;;;18.50;66.80;;;;;;5183054;27;27346;-59
2021/07/12 02:51:17;;;;;;;6.85;1.30;;;18.50;66.90;;;;;;5153781;27;27489;-56
2021/07/12 02:54:06;;;;;;;2.83;1.50;;;18.50;66.90;;;;;;5185236;27;27413;-59
2021/07/12 02:56:54;;;;;;;1.85;1.48;;;18.50;67.00;;;;;;5154241;27;27960;-59
2021/07/12 02:59:44;;;;;;;3.78;1.30;;;18.50;66.90;;;;;;5183011;27;27427;-57
2021/07/12 03:02:31;;;;;;;2.72;1.38;;;18.40;66.80;;;;;;5183217;27;27418;-57
2021/07/12 03:05:18;;;;;;;6.55;2.85;;;18.40;66.80;;;;;;5168022;27;27398;-59
2021/07/12 03:08:25;;;;;;;3.33;1.50;;;18.40;66.90;;;;;;5183920;27;27401;-59
2021/07/12 03:11:13;;;;;;;5.05;1.50;;;18.40;66.90;;;;;;5186047;27;27481;-58
2021/07/12 03:14:15;;;;;;;3.28;1.30;;;18.40;67.00;;;;;;5183577;27;27429;-58
2021/07/12 03:17:06;;;;;;;1.45;1.10;;;18.30;67.00;;;;;;5182874;27;27474;-58
2021/07/12 03:19:53;;;;;;;3.83;1.20;;;18.30;67.10;;;;;;5186198;27;27376;-58
2021/07/12 03:22:54;;;;;;;1.95;1.30;;;18.30;67.00;;;;;;5183276;27;27349;-58
2021/07/12 03:25:46;;;;;;;6.95;1.30;;;18.30;67.10;;;;;;5186561;27;27438;-59
2021/07/12 03:28:35;;;;;;;1.80;1.00;;;18.30;67.10;;;;;;5167866;27;27439;-59
2021/07/12 03:31:25;;;;;;;6.22;1.60;;;18.20;67.10;;;;;;5182420;27;27958;-57
2021/07/12 03:34:14;;;;;;;5.45;1.50;;;18.20;67.00;;;;;;5168130;27;27425;-57
2021/07/12 03:37:02;;;;;;;2.78;1.15;;;18.20;67.00;;;;;;5185674;27;27416;-58
2021/07/12 03:39:50;;;;;;;5.88;1.40;;;18.20;67.10;;;;;;5183377;27;27310;-57
2021/07/12 03:42:38;;;;;;;4.60;1.30;;;18.10;67.70;;;;;;5182495;27;27575;-59
2021/07/12 03:45:27;;;;;;;2.80;1.42;;;18.10;67.00;;;;;;5186337;27;27458;-58
2021/07/12 03:48:13;;;;;;;5.20;1.48;;;18.10;67.10;;;;;;5138771;27;27379;-58
2021/07/12 03:51:03;;;;;;;1.75;1.50;;;18.10;67.10;;;;;;5168232;27;27421;-58
2021/07/12 03:53:56;;;;;;;1.77;1.45;;;18.10;67.20;;;;;;5183836;27;27670;-57
2021/07/12 03:56:44;;;;;;;6.55;1.60;;;18.00;67.40;;;;;;5182879;27;27491;-57
2021/07/12 03:59:31;;;;;;;1.45;1.20;;;18.00;67.40;;;;;;5185631;27;27353;-56
2021/07/12 04:02:20;;;;;;;2.75;1.30;;;18.00;67.40;;;;;;5168014;27;27380;-57
2021/07/12 04:05:08;;;;;;;2.50;1.10;;;18.00;67.50;;;;;;5188722;27;27875;-57
2021/07/12 04:07:59;;;;;;;1.38;1.20;;;18.00;67.60;;;;;;5189974;27;27467;-58
2021/07/12 04:10:46;;;;;;;1.77;1.42;;;18.00;67.60;;;;;;5141855;27;27410;-57
2021/07/12 04:13:33;;;;;;;3.55;1.70;;;18.00;67.70;;;;;;5189692;27;27414;-59
2021/07/12 04:16:22;;;;;;;3.47;1.30;;;18.00;67.80;;;;;;5189051;27;27675;-57
2021/07/12 04:19:09;;;;;;;3.08;1.40;;;17.90;67.70;;;;;;5186205;27;27314;-55
2021/07/12 04:21:56;;;;;;;1.75;1.48;;;17.90;67.80;;;;;;5185734;27;27327;-57
2021/07/12 04:24:45;;;;;;;1.42;1.20;;;17.90;68.00;;;;;;5186195;27;27453;-58
2021/07/12 04:27:32;;;;;;;2.90;1.38;;;17.90;68.00;;;;;;5185150;27;27349;-57
2021/07/12 04:30:20;;;;;;;2.17;1.23;;;17.90;68.10;;;;;;5170714;27;27403;-58
2021/07/12 04:33:08;;;;;;;1.65;1.20;;;17.90;68.20;;;;;;5188908;27;27340;-56
2021/07/12 04:35:55;;;;;;;2.15;1.67;;;17.90;68.30;;;;;;5170235;27;27424;-57
2021/07/12 04:38:42;;;;;;;2.17;1.52;;;17.90;68.30;;;;;;5188479;27;27358;-58
2021/07/12 04:41:28;;;;;;;1.85;1.27;;;17.90;68.40;;;;;;5173831;27;27457;-58
2021/07/12 04:44:15;;;;;;;4.47;1.70;;;17.90;68.50;;;;;;5188847;27;27568;-58
2021/07/12 04:47:03;;;;;;;7.30;3.10;;;17.90;68.60;;;;;;5188467;27;27421;-58
2021/07/12 04:49:51;;;;;;;5.32;1.50;;;17.90;68.70;;;;;;5189297;27;27467;-58
2021/07/12 04:52:38;;;;;;;4.03;1.63;;;17.90;68.80;;;;;;5184517;27;27418;-54
2021/07/12 04:55:26;;;;;;;4.93;2.17;;;17.90;69.00;;;;;;5185705;27;27330;-53
2021/07/12 04:58:13;;;;;;;4.53;1.77;;;17.90;69.10;;;;;;5185823;27;27391;-56
2021/07/12 05:01:00;;;;;;;3.10;1.98;;;17.90;69.40;;;;;;5189211;27;27958;-56
2021/07/12 05:03:47;;;;;;;9.15;2.80;;;17.90;69.50;;;;;;5188353;27;27345;-57
2021/07/12 05:06:34;;;;;;;4.07;1.77;;;17.90;69.70;;;;;;5188302;27;27371;-57
2021/07/12 05:09:20;;;;;;;2.67;1.70;;;17.90;70.00;;;;;;5189002;27;27305;-57
2021/07/12 05:12:08;;;;;;;6.47;1.67;;;17.90;70.10;;;;;;5188458;27;27963;-57
2021/07/12 05:14:55;;;;;;;7.10;2.75;;;18.00;70.30;;;;;;5187738;27;27449;-58
2021/07/12 05:17:43;;;;;;;6.65;2.15;;;18.00;70.40;;;;;;5188726;27;27438;-56
2021/07/12 05:20:30;;;;;;;4.85;1.70;;;18.00;70.60;;;;;;5187957;27;27326;-56
2021/07/12 05:23:17;;;;;;;3.05;1.30;;;18.00;70.70;;;;;;5155177;27;27515;-57
2021/07/12 05:26:04;;;;;;;3.47;1.67;;;18.00;70.80;;;;;;5187522;27;27511;-57
2021/07/12 05:28:51;;;;;;;3.80;2.00;;;18.00;70.90;;;;;;5187713;27;27483;-58
2021/07/12 05:31:38;;;;;;;3.00;1.52;;;18.10;71.10;;;;;;5185210;27;27392;-55
2021/07/12 05:34:26;;;;;;;2.58;1.75;;;18.10;71.20;;;;;;5188202;27;27925;-57
2021/07/12 05:37:14;;;;;;;7.22;2.42;;;18.10;71.50;;;;;;5187402;27;27426;-56
2021/07/12 05:40:02;;;;;;;4.28;2.10;;;18.10;71.60;;;;;;5157841;27;27456;-57
2021/07/12 05:42:48;;;;;;;2.42;1.70;;;18.10;71.80;;;;;;5185167;27;27343;-58
2021/07/12 05:45:36;;;;;;;2.20;1.98;;;18.20;72.10;;;;;;5173656;27;27863;-57
2021/07/12 05:48:23;;;;;;;3.78;1.80;;;18.20;72.30;;;;;;5184730;27;27463;-57
2021/07/12 05:51:10;;;;;;;2.45;2.10;;;18.30;72.50;;;;;;5173736;27;27505;-57
2021/07/12 05:53:58;;;;;;;2.22;1.80;;;18.30;72.70;;;;;;5187588;27;27399;-57
2021/07/12 05:56:45;;;;;;;2.70;2.00;;;18.40;73.00;;;;;;5188235;27;27307;-56
2021/07/12 05:59:33;;;;;;;5.25;2.38;;;18.40;73.00;;;;;;5184753;27;27490;-57
2021/07/12 06:02:24;;;;;;;5.55;2.20;;;18.60;73.40;;;;;;5188276;27;27393;-57
2021/07/12 06:05:13;;;;;;;4.15;2.72;;;18.70;73.40;;;;;;5173314;27;27333;-57
2021/07/12 06:08:01;;;;;;;3.33;2.75;;;18.90;72.90;;;;;;5187448;27;27878;-58
2021/07/12 06:10:48;;;;;;;7.20;3.08;;;19.10;72.80;;;;;;5188865;27;27306;-58
2021/07/12 06:13:37;;;;;;;3.08;2.50;;;19.30;71.30;;;;;;5173106;27;27332;-58
2021/07/12 06:16:25;;;;;;;5.43;3.28;;;19.50;73.20;;;;;;5184556;27;27393;-57
2021/07/12 06:19:12;;;;;;;4.82;2.92;;;19.70;72.80;;;;;;5187964;27;27314;-58
2021/07/12 06:22:00;;;;;;;4.95;2.90;;;19.90;72.50;;;;;;5188345;27;27352;-57
2021/07/12 06:24:47;;;;;;;3.30;2.50;;;20.10;72.70;;;;;;5188140;27;27519;-57
2021/07/12 06:27:35;;;;;;;3.92;3.00;;;20.20;72.70;;;;;;5187478;27;27487;-57
2021/07/12 06:30:23;;;;;;;6.80;2.92;;;20.30;73.10;;;;;;5169723;27;27311;-63
2021/07/12 06:33:10;;;;;;;5.60;2.60;;;20.40;73.30;;;;;;5172942;27;27351;-57
2021/07/12 06:35:57;;;;;;;4.60;3.13;;;20.40;73.70;;;;;;5186370;27;26972;-57
2021/07/12 06:38:45;;;;;;;3.47;2.40;;;20.50;73.50;;;;;;5188372;27;27398;-57
2021/07/12 06:41:33;;;;;;;3.75;3.00;;;20.60;73.40;;;;;;5169789;27;27333;-57
2021/07/12 06:44:24;;;;;;;8.25;2.97;;;20.70;73.40;;;;;;5187943;27;27402;-58
2021/07/12 06:47:21;;;;;;;5.25;2.80;;;20.80;73.80;;;;;;5186572;27;27521;-58
2021/07/12 06:50:12;;;;;;;2.95;2.42;;;20.90;74.30;;;;;;5183846;27;27319;-57
2021/07/12 06:53:01;;;;;;;4.80;3.10;;;21.00;74.20;;;;;;5187514;27;27644;-57
2021/07/12 06:55:48;;;;;;;3.17;2.70;;;21.20;74.40;;;;;;5187165;27;27384;-57
2021/07/12 06:58:35;;;;;;;6.30;3.17;;;21.30;74.60;;;;;;5184116;27;27354;-57
2021/07/12 07:01:28;;;;;;;5.53;2.65;;;21.40;74.50;;;;;;5187544;27;27493;-58
2021/07/12 07:04:18;;;;;;;2.33;2.13;;;21.50;74.70;;;;;;5172416;27;27340;-57
2021/07/12 07:07:07;;;;;;;4.70;2.38;;;21.60;74.80;;;;;;5183808;27;27400;-57
2021/07/12 07:09:54;;;;;;;2.40;2.10;;;21.70;75.40;;;;;;5187748;27;27349;-57
2021/07/12 07:12:43;;;;;;;3.25;1.98;;;21.80;75.20;;;;;;5188037;27;27364;-58
2021/07/12 07:15:31;;;;;;;2.97;2.20;;;22.00;75.50;;;;;;5186916;27;27494;-58
2021/07/12 07:18:19;;;;;;;1.98;1.70;;;22.20;75.00;;;;;;5183768;27;27410;-57
2021/07/12 07:21:13;;;;;;;2.10;1.70;;;22.40;74.50;;;;;;5187287;27;27326;-58
2021/07/12 07:24:01;;;;;;;2.40;1.80;;;22.60;74.50;;;;;;5186731;27;27419;-57
2021/07/12 07:26:52;;;;;;;3.10;1.67;;;22.80;74.20;;;;;;5187722;27;27878;-58
2021/07/12 07:29:42;;;;;;;4.60;1.40;;;23.00;73.80;;;;;;5186583;27;27540;-59
2021/07/12 07:32:37;;;;;;;1.40;1.30;;;23.20;73.80;;;;;;5187797;27;27450;-58
2021/07/12 07:35:29;;;;;;;1.63;1.52;;;23.40;73.30;;;;;;5187373;27;26839;-58
2021/07/12 07:38:19;;;;;;;2.28;1.88;;;23.50;74.00;;;;;;5161063;27;27856;-59
2021/07/12 07:41:09;;;;;;;2.83;1.73;;;23.60;73.20;;;;;;5191048;27;27421;-58
2021/07/12 07:44:19;;;;;;;1.75;1.52;;;23.70;73.00;;;;;;5187864;27;27399;-59
2021/07/12 07:47:11;;;;;;;3.90;1.70;;;23.80;72.70;;;;;;5189310;27;27351;-59
2021/07/12 07:50:11;;;;;;;2.92;1.83;;;24.00;72.70;;;;;;5190075;27;27502;-58
2021/07/12 07:53:19;;;;;;;1.10;1.00;;;24.20;72.30;;;;;;5189528;27;27333;-59
2021/07/12 07:56:20;;;;;;;3.25;1.45;;;24.50;71.50;;;;;;5190738;27;27448;-59
2021/07/12 07:59:28;;;;;;;1.38;1.25;;;24.80;71.40;;;;;;5190322;27;27490;-58
2021/07/12 08:02:32;;;;;;;1.40;1.20;;;25.10;70.40;;;;;;5186752;27;27450;-60
2021/07/12 08:05:24;;;;;;;3.45;1.50;;;25.40;69.10;;;;;;5189639;27;27443;-58
2021/07/12 08:08:17;;;;;;;2.55;1.33;;;25.50;67.80;;;;;;5190637;27;27401;-61
2021/07/12 08:11:09;;;;;;;1.40;1.30;;;25.80;68.40;;;;;;5175784;27;27459;-59
2021/07/12 08:13:59;;;;;;;2.83;1.10;;;26.00;67.20;;;;;;5190822;27;27347;-58
2021/07/12 08:17:14;;;;;;;1.30;1.20;;;26.20;66.20;;;;;;5189697;27;27443;-58
2021/07/12 08:20:24;;;;;;;1.50;1.30;;;26.30;64.10;;;;;;5187401;27;27395;-59
2021/07/12 08:23:18;;;;;;;1.30;1.20;;;26.50;64.00;;;;;;5186217;27;27471;-60
2021/07/12 08:26:07;;;;;;;1.30;1.20;;;26.60;63.60;;;;;;5188709;27;27403;-59
2021/07/12 08:29:12;;;;;;;1.55;1.15;;;26.90;64.00;;;;;;5189510;27;27411;-59
2021/07/12 08:32:26;;;;;;;1.52;1.15;;;27.10;64.40;;;;;;5189566;27;27334;-60
2021/07/12 08:35:16;;;;;;;1.50;1.40;;;27.30;63.00;;;;;;5190510;27;27398;-59
2021/07/12 08:38:15;;;;;;;1.55;1.27;;;27.50;62.20;;;;;;5186680;27;27904;-59
2021/07/12 08:41:06;;;;;;;1.92;1.27;;;27.60;62.10;;;;;;5190070;27;27461;-59
2021/07/12 08:43:58;;;;;;;1.40;1.30;;;27.80;63.50;;;;;;5189659;27;27399;-59
2021/07/12 08:46:49;;;;;;;2.53;1.20;;;28.00;61.30;;;;;;5190324;27;27387;-62
2021/07/12 08:49:43;;;;;;;2.75;1.10;;;28.10;59.50;;;;;;5171050;27;27409;-60
2021/07/12 08:52:31;;;;;;;2.83;1.13;;;28.10;60.70;;;;;;5171247;27;27539;-59
2021/07/12 08:55:27;;;;;;;1.40;1.30;;;28.20;60.90;;;;;;5189846;27;27433;-62
2021/07/12 08:58:34;;;;;;;2.88;1.73;;;28.30;60.70;;;;;;5189046;27;27461;-60
2021/07/12 09:01:27;;;;;;;1.80;1.50;;;28.40;61.00;;;;;;5176537;27;27475;-59
2021/07/12 09:04:28;;;;;;;3.17;1.50;;;28.50;61.00;;;;;;5189627;27;27486;-61
2021/07/12 09:07:22;;;;;;;1.48;1.00;;;28.50;57.50;;;;;;5185910;27;27319;-60
2021/07/12 09:10:31;;;;;;;1.13;1.00;;;28.60;57.90;;;;;;5174681;27;27487;-59
2021/07/12 09:13:47;;;;;;;1.83;1.30;;;28.70;58.40;;;;;;5189564;27;27394;-60
2021/07/12 09:17:11;;;;;;;1.13;1.00;;;28.80;57.80;;;;;;5186137;27;27447;-60
2021/07/12 09:20:36;;;;;;;3.33;1.52;;;29.00;58.90;;;;;;5117939;27;27596;-62
2021/07/12 09:23:37;;;;;;;1.23;1.10;;;29.10;58.40;;;;;;5115034;27;27501;-59
2021/07/12 09:26:37;;;;;;;1.35;1.25;;;29.20;59.10;;;;;;5131476;27;27399;-60
2021/07/12 09:29:35;;;;;;;1.00;0.90;;;29.30;58.00;;;;;;5131154;27;27462;-60
2021/07/12 09:32:34;;;;;;;1.25;1.17;;;29.40;58.40;;;;;;5146036;27;27358;-60
2021/07/12 09:35:24;;;;;;;1.30;1.20;;;29.50;56.40;;;;;;5131312;27;27482;-59
2021/07/12 09:38:28;;;;;;;2.08;1.40;;;29.50;55.50;;;;;;5131659;27;27450;-60
2021/07/12 09:41:31;;;;;;;1.65;1.30;;;29.60;56.80;;;;;;5132425;27;27500;-59
2021/07/12 09:44:25;;;;;;;1.40;1.30;;;29.70;57.20;;;;;;5145173;27;27527;-59
2021/07/12 09:47:29;;;;;;;5.90;1.35;;;29.70;56.80;;;;;;5113234;27;27457;-61
2021/07/12 09:50:49;;;;;;;1.65;1.52;;;29.70;57.60;;;;;;5116434;27;27532;-59
2021/07/12 09:53:41;;;;;;;2.15;1.92;;;29.60;57.90;;;;;;5144004;27;27417;-59
2021/07/12 09:56:36;;;;;;;1.50;1.40;;;29.40;58.00;;;;;;5156842;27;27453;-60
2021/07/12 09:59:27;;;;;;;3.00;1.90;;;29.20;57.70;;;;;;5173752;27;27417;-59
2021/07/12 10:02:51;;;;;;;1.65;1.40;;;29.00;57.90;;;;;;5173353;27;27363;-60
2021/07/12 10:05:46;;;;;;;4.18;1.65;;;28.80;59.30;;;;;;5188469;27;27435;-62
2021/07/12 10:08:42;;;;;;;2.17;1.10;;;28.60;60.70;;;;;;5188788;27;27385;-60
2021/07/12 10:11:36;;;;;;;2.40;1.02;;;28.40;61.90;;;;;;5188661;27;27403;-59
2021/07/12 10:14:36;;;;;;;1.48;1.25;;;28.30;62.80;;;;;;5187660;27;27346;-60
2021/07/12 10:17:27;;;;;;;1.40;1.30;;;28.20;64.40;;;;;;5160836;27;27487;-58
2021/07/12 10:20:19;;;;;;;1.45;1.20;;;28.20;64.10;;;;;;5188045;27;27334;-59
2021/07/12 10:23:08;;;;;;;3.08;1.15;;;28.10;64.10;;;;;;5187946;27;27453;-59
2021/07/12 10:26:02;;;;;;;2.08;1.40;;;28.00;65.30;;;;;;5173052;27;27395;-61
2021/07/12 10:28:54;;;;;;;1.23;1.13;;;27.90;65.90;;;;;;5184985;27;27435;-60
2021/07/12 10:32:36;;;;;;;1.52;1.42;;;27.80;65.90;;;;;;5173668;27;27460;-59
2021/07/12 10:35:57;;;;;;;1.35;1.20;;;27.70;66.10;;;;;;5175321;27;27448;-61
2021/07/12 10:38:53;;;;;;;3.22;1.20;;;27.70;66.40;;;;;;5187713;27;27363;-59
2021/07/12 10:41:58;;;;;;;1.20;1.10;;;27.50;66.10;;;;;;5173751;27;27468;-58
2021/07/12 10:45:34;;;;;;;1.40;1.25;;;27.50;66.30;;;;;;5185029;27;27322;-59
2021/07/12 10:48:34;;;;;;;2.45;1.23;;;27.40;66.10;;;;;;5129368;27;27402;-59
2021/07/12 10:51:33;;;;;;;0.82;0.82;;;27.50;67.30;;;;;;5155903;27;27847;-59
2021/07/12 10:54:27;;;;;;;2.15;1.33;;;27.60;68.10;;;;;;5171846;27;27541;-59
2021/07/12 10:57:18;;;;;;;1.50;1.20;;;27.80;68.70;;;;;;5184596;27;27342;-59
2021/07/12 11:00:15;;;;;;;2.58;1.40;;;27.90;68.20;;;;;;5187525;27;27459;-60
2021/07/12 11:03:06;;;;;;;3.67;1.20;;;28.00;67.50;;;;;;5155809;27;27323;-58
2021/07/12 11:05:56;;;;;;;1.30;1.20;;;28.10;67.20;;;;;;5187845;27;27403;-60
2021/07/12 11:08:56;;;;;;;2.90;2.53;;;28.20;67.30;;;;;;5187450;27;27383;-59
2021/07/12 11:12:00;;;;;;;1.30;1.20;;;28.30;67.30;;;;;;5185434;27;27447;-59
2021/07/12 11:15:07;;;;;;;1.55;1.10;;;28.40;67.80;;;;;;5172899;27;27936;-58
2021/07/12 11:18:09;;;;;;;1.30;1.20;;;28.40;66.60;;;;;;5187412;27;27424;-59
2021/07/12 11:21:05;;;;;;;1.40;1.27;;;28.50;66.00;;;;;;5190857;27;27334;-59
2021/07/12 11:23:59;;;;;;;2.70;1.40;;;28.50;64.50;;;;;;5190765;27;27484;-60
2021/07/12 11:26:56;;;;;;;1.48;1.38;;;28.60;64.20;;;;;;5187197;27;27963;-60
2021/07/12 11:29:46;;;;;;;1.25;1.10;;;28.70;64.70;;;;;;5176623;27;27430;-59
2021/07/12 11:32:37;;;;;;;1.20;1.10;;;29.00;65.20;;;;;;5191302;27;27342;-62
2021/07/12 11:35:29;;;;;;;5.45;1.30;;;29.10;66.60;;;;;;5175981;27;27455;-59
2021/07/12 11:38:19;;;;;;;1.50;1.40;;;29.20;65.20;;;;;;5173167;27;27423;-59
2021/07/12 11:41:11;;;;;;;2.08;1.50;;;29.30;65.50;;;;;;5191375;27;27470;-61
2021/07/12 11:44:17;;;;;;;11.05;2.13;;;29.30;66.90;;;;;;5190595;27;27495;-62
2021/07/12 11:47:40;;;;;;;3.63;1.55;;;29.50;55.20;;;;;;5191002;27;27509;-59
2021/07/12 11:50:37;;;;;;;3.33;1.40;;;29.50;51.00;;;;;;5188498;27;27333;-60
2021/07/12 11:53:36;;;;;;;2.47;1.45;;;29.60;53.10;;;;;;5190456;27;27394;-62
2021/07/12 11:56:28;;;;;;;4.82;1.25;;;29.60;56.60;;;;;;5191199;27;27390;-59
2021/07/12 11:59:39;;;;;;;2.45;1.70;;;29.70;58.80;;;;;;5187488;27;27403;-59
2021/07/12 12:02:44;;;;;;;2.45;1.50;;;29.70;60.40;;;;;;5162541;27;27485;-60
2021/07/12 12:05:59;;;;;;;2.40;1.75;;;29.70;60.40;;;;;;5187543;27;27482;-59
2021/07/12 12:09:09;;;;;;;3.63;1.33;;;29.70;61.70;;;;;;5177238;27;27437;-59
2021/07/12 12:11:57;;;;;;;1.75;1.20;;;29.70;63.40;;;;;;5186830;27;27463;-58
2021/07/12 12:14:50;;;;;;;1.95;1.40;;;29.60;64.00;;;;;;5190508;27;27391;-59
2021/07/12 12:18:08;;;;;;;1.85;1.33;;;29.50;64.50;;;;;;5161716;27;27356;-59
2021/07/12 12:21:03;;;;;;;1.52;1.40;;;29.50;66.10;;;;;;5177831;27;27408;-59
2021/07/12 12:24:20;;;;;;;2.45;1.60;;;29.40;65.90;;;;;;5188648;27;27493;-59
2021/07/12 12:27:13;;;;;;;1.30;1.20;;;29.40;67.50;;;;;;5189881;27;27383;-59
2021/07/12 12:30:02;;;;;;;2.92;1.50;;;29.50;68.40;;;;;;5190191;27;27372;-59
2021/07/12 12:33:14;;;;;;;2.05;1.45;;;29.70;68.90;;;;;;5190041;27;27618;-58
2021/07/12 12:36:02;;;;;;;1.70;1.50;;;29.90;71.10;;;;;;5190186;27;27551;-58
2021/07/12 12:38:51;;;;;;;1.52;1.42;;;30.00;71.40;;;;;;5190562;27;28001;-58
2021/07/12 12:41:57;;;;;;;1.88;1.58;;;30.10;69.30;;;;;;5189198;27;27423;-58
2021/07/12 12:44:41;;;;;;;2.85;1.40;;;30.10;68.80;;;;;;5190296;27;27377;-58
2021/07/12 12:47:27;;;;;;;2.78;1.70;;;30.10;70.10;;;;;;5190154;27;27485;-58
2021/07/12 12:50:14;;;;;;;1.63;1.52;;;30.00;70.90;;;;;;5190090;27;27336;-58
2021/07/12 12:53:06;;;;;;;4.00;1.52;;;30.00;70.40;;;;;;5189694;27;27342;-58
2021/07/12 12:55:53;;;;;;;1.92;1.70;;;29.90;71.00;;;;;;5189820;27;27465;-59
2021/07/12 12:58:38;;;;;;;3.03;1.95;;;29.80;70.30;;;;;;5189732;27;27391;-58
2021/07/12 13:01:46;;;;;;;2.13;1.63;;;29.70;67.70;;;;;;5189184;27;27318;-61
2021/07/12 13:04:54;;;;;;;2.25;1.48;;;29.70;68.50;;;;;;5189894;27;27481;-64
2021/07/12 13:07:59;;;;;;;1.85;1.40;;;29.60;68.80;;;;;;5186372;27;27405;-59
2021/07/12 13:11:07;;;;;;;1.77;1.60;;;29.50;70.20;;;;;;5144599;27;27370;-59
2021/07/12 13:14:15;;;;;;;2.53;1.70;;;29.40;70.70;;;;;;5174398;27;27883;-59
2021/07/12 13:17:08;;;;;;;2.00;1.60;;;29.40;70.80;;;;;;5188734;27;27427;-59
2021/07/12 13:20:07;;;;;;;2.35;1.58;;;29.40;71.90;;;;;;5189562;27;27373;-59
2021/07/12 13:23:08;;;;;;;3.70;1.67;;;29.30;70.70;;;;;;5174564;27;27491;-59
2021/07/12 13:26:20;;;;;;;5.05;1.98;;;29.30;70.20;;;;;;5187772;27;27387;-59
2021/07/12 13:29:13;;;;;;;2.85;1.77;;;29.20;70.10;;;;;;5185287;27;27341;-59
2021/07/12 13:32:09;;;;;;;4.43;2.22;;;29.20;70.40;;;;;;5188690;27;27494;-58
2021/07/12 13:35:13;;;;;;;3.47;1.67;;;29.20;71.10;;;;;;5189339;27;27379;-60
2021/07/12 13:38:11;;;;;;;5.20;1.90;;;29.10;71.50;;;;;;5188432;27;27874;-60
2021/07/12 13:41:05;;;;;;;2.35;1.60;;;29.10;70.00;;;;;;5174503;27;27350;-58
2021/07/12 13:43:57;;;;;;;3.33;1.80;;;29.10;70.30;;;;;;5188340;27;27408;-58
2021/07/12 13:46:49;;;;;;;2.05;1.88;;;29.10;69.80;;;;;;5188294;27;27437;-60
2021/07/12 13:49:47;;;;;;;2.55;1.80;;;29.10;72.90;;;;;;5159619;27;27863;-59
2021/07/12 13:52:39;;;;;;;4.78;1.90;;;29.20;72.10;;;;;;5189142;27;27466;-59
2021/07/12 13:55:38;;;;;;;3.58;1.70;;;29.10;73.20;;;;;;5186866;27;27400;-60
2021/07/12 13:58:34;;;;;;;11.65;2.15;;;29.20;73.00;;;;;;5188724;27;27477;-61
2021/07/12 14:01:54;;;;;;;2.03;1.67;;;29.10;72.40;;;;;;5170321;27;27867;-60
2021/07/12 14:04:54;;;;;;;2.13;1.73;;;29.10;69.70;;;;;;5184494;27;27433;-58
2021/07/12 14:07:50;;;;;;;2.45;1.92;;;29.10;71.10;;;;;;5188943;27;27416;-59
2021/07/12 14:10:42;;;;;;;2.55;1.58;;;29.20;70.00;;;;;;5187905;27;27392;-59
2021/07/12 14:13:46;;;;;;;2.55;1.50;;;29.20;70.00;;;;;;5187858;27;27971;-59
2021/07/12 14:16:55;;;;;;;2.72;1.92;;;29.20;72.70;;;;;;5185424;27;27461;-59
2021/07/12 14:20:04;;;;;;;4.88;1.67;;;29.30;74.10;;;;;;5163126;27;26982;-58
2021/07/12 14:23:02;;;;;;;2.30;1.85;;;29.40;73.20;;;;;;5184418;27;27409;-59
2021/07/12 14:25:54;;;;;;;2.38;1.67;;;29.30;70.90;;;;;;5173022;27;27471;-59
2021/07/12 14:28:55;;;;;;;1.70;1.60;;;29.30;70.10;;;;;;5184268;27;27335;-58
2021/07/12 14:31:49;;;;;;;4.55;1.70;;;29.20;71.30;;;;;;5187811;27;27508;-58
2021/07/12 14:34:41;;;;;;;4.85;1.90;;;29.10;70.90;;;;;;5184409;27;27468;-59
2021/07/12 14:37:43;;;;;;;1.75;1.40;;;29.10;70.50;;;;;;5187778;27;27421;-60
2021/07/12 14:40:37;;;;;;;1.58;1.48;;;29.00;69.90;;;;;;5154842;27;27474;-59
2021/07/12 14:43:41;;;;;;;1.90;1.63;;;29.00;71.60;;;;;;5187686;27;27447;-60
2021/07/12 14:46:44;;;;;;;1.80;1.70;;;29.00;71.20;;;;;;5173203;27;27342;-59
2021/07/12 14:50:00;;;;;;;1.77;1.60;;;29.00;71.10;;;;;;5187904;27;27950;-59
2021/07/12 14:53:06;;;;;;;1.70;1.55;;;29.00;70.90;;;;;;5187228;27;27391;-59
2021/07/12 14:56:05;;;;;;;2.72;1.42;;;29.00;71.00;;;;;;5187278;27;27391;-59
2021/07/12 14:59:24;;;;;;;2.83;1.55;;;28.90;70.50;;;;;;5169528;27;27408;-58
2021/07/12 15:02:33;;;;;;;4.25;2.00;;;29.00;71.20;;;;;;5183957;27;27413;-58
2021/07/12 15:06:00;;;;;;;1.50;1.40;;;28.90;71.00;;;;;;5187815;27;27400;-59
2021/07/12 15:09:09;;;;;;;2.10;1.90;;;29.00;71.10;;;;;;5187164;27;27326;-58
2021/07/12 15:12:14;;;;;;;2.65;1.17;;;29.00;69.50;;;;;;5187415;27;27408;-59
2021/07/12 15:15:12;;;;;;;3.35;1.60;;;29.00;70.90;;;;;;5186805;27;27587;-59